createdAt,value
2022-08-03T00:00:36.451Z,8.60
2022-08-03T00:03:05.499Z,7.40
2022-08-03T00:05:33.873Z,7.70
2022-08-03T00:08:02.180Z,6.20
2022-08-03T00:10:30.610Z,7.60
2022-08-03T00:12:58.949Z,7.30
2022-08-03T00:15:27.275Z,8.50
2022-08-03T00:17:55.664Z,7.30
2022-08-03T00:20:24.537Z,6.50
2022-08-03T00:22:52.873Z,6.20
2022-08-03T00:25:21.302Z,6.70
2022-08-03T00:27:50.408Z,9.10
2022-08-03T00:30:19.365Z,8.80
2022-08-03T00:32:48.366Z,6.50
2022-08-03T00:35:36.584Z,7.40
2022-08-03T00:38:06.032Z,7.80
2022-08-03T00:40:35.238Z,7.50
2022-08-03T00:43:06.412Z,6.90
2022-08-03T00:45:37.770Z,7.90
2022-08-03T00:48:29.440Z,7.00
2022-08-03T00:50:56.810Z,7.30
2022-08-03T00:53:26.120Z,10.50
2022-08-03T00:55:54.555Z,6.90
2022-08-03T00:58:24.385Z,7.10
2022-08-03T01:00:52.838Z,7.40
2022-08-03T01:03:21.178Z,7.10
2022-08-03T01:05:56.475Z,7.50
2022-08-03T01:09:09.694Z,7.50
2022-08-03T01:12:00.755Z,9.10
2022-08-03T01:14:47.151Z,6.70
2022-08-03T01:17:24.743Z,9.40
2022-08-03T01:20:12.028Z,8.30
2022-08-03T01:23:14.962Z,7.20
2022-08-03T01:25:56.213Z,7.10
2022-08-03T01:28:58.410Z,7.50
2022-08-03T01:31:32.871Z,7.80
2022-08-03T01:34:05.159Z,8.70
2022-08-03T01:36:43.872Z,7.70
2022-08-03T01:39:12.942Z,7.40
2022-08-03T01:41:49.705Z,7.20
2022-08-03T01:44:29.200Z,6.80
2022-08-03T01:47:01.450Z,8.50
2022-08-03T01:49:33.705Z,7.90
2022-08-03T01:52:05.514Z,9.00
2022-08-03T01:54:45.844Z,7.90
2022-08-03T01:57:15.380Z,8.00
2022-08-03T01:59:45.689Z,7.90
2022-08-03T02:02:33.457Z,8.80
2022-08-03T02:05:10.731Z,6.90
2022-08-03T02:07:42.202Z,10.30
2022-08-03T02:10:13.499Z,6.90
2022-08-03T02:12:46.059Z,8.00
2022-08-03T02:15:17.045Z,8.80
2022-08-03T02:17:47.562Z,9.60
2022-08-03T02:20:17.333Z,7.70
2022-08-03T02:22:47.734Z,7.50
2022-08-03T02:25:16.906Z,7.60
2022-08-03T02:28:02.377Z,7.20
2022-08-03T02:30:39.566Z,8.50
2022-08-03T02:33:12.682Z,8.30
2022-08-03T02:35:43.070Z,10.30
2022-08-03T02:38:15.545Z,10.20
2022-08-03T02:40:46.412Z,8.80
2022-08-03T02:43:18.883Z,8.20
2022-08-03T02:45:49.406Z,9.00
2022-08-03T02:48:25.485Z,9.40
2022-08-03T02:50:57.285Z,8.60
2022-08-03T02:53:31.024Z,8.40
2022-08-03T02:56:00.476Z,8.10
2022-08-03T02:58:31.383Z,9.70
2022-08-03T03:01:01.035Z,8.20
2022-08-03T03:03:33.161Z,8.90
2022-08-03T03:06:06.889Z,8.20
2022-08-03T03:08:35.603Z,7.50
2022-08-03T03:11:09.263Z,8.20
2022-08-03T03:13:39.984Z,7.60
2022-08-03T03:18:38.469Z,7.50
2022-08-03T03:21:10.034Z,8.40
2022-08-03T03:23:41.059Z,7.80
2022-08-03T03:26:09.986Z,8.90
2022-08-03T03:28:38.499Z,7.40
2022-08-03T03:31:07.946Z,8.30
2022-08-03T03:33:37.730Z,7.80
2022-08-03T03:36:07.284Z,7.60
2022-08-03T03:38:35.695Z,7.90
2022-08-03T03:41:05.242Z,7.70
2022-08-03T03:43:34.899Z,7.90
2022-08-03T03:46:03.443Z,7.40
2022-08-03T03:48:32.294Z,7.10
2022-08-03T03:51:02.112Z,7.20
2022-08-03T03:53:30.537Z,7.50
2022-08-03T03:56:02.647Z,7.10
2022-08-03T03:58:33.009Z,8.70
2022-08-03T04:01:01.839Z,8.30
2022-08-03T04:03:30.505Z,7.60
2022-08-03T04:06:17.995Z,8.90
2022-08-03T04:09:05.004Z,7.30
2022-08-03T04:11:47.882Z,7.50
2022-08-03T04:14:29.204Z,8.30
2022-08-03T04:17:01.948Z,8.00
2022-08-03T04:19:42.506Z,7.90
2022-08-03T04:22:15.019Z,11.00
2022-08-03T04:24:57.394Z,8.50
2022-08-03T04:27:28.995Z,8.10
2022-08-03T04:29:58.144Z,13.20
2022-08-03T04:32:29.033Z,8.40
2022-08-03T04:34:57.998Z,7.50
2022-08-03T04:37:48.193Z,7.60
2022-08-03T04:40:25.653Z,8.80
2022-08-03T04:43:00.521Z,7.70
2022-08-03T04:45:30.762Z,8.80
2022-08-03T04:47:59.864Z,6.60
2022-08-03T04:50:31.441Z,7.00
2022-08-03T04:53:07.281Z,7.40
2022-08-03T04:55:36.101Z,9.40
2022-08-03T04:58:05.326Z,8.80
2022-08-03T05:00:33.903Z,9.20
2022-08-03T05:03:02.304Z,6.90
2022-08-03T05:05:48.798Z,8.60
2022-08-03T05:08:20.523Z,7.40
2022-08-03T05:10:59.083Z,6.90
2022-08-03T05:13:27.969Z,6.70
2022-08-03T05:15:56.449Z,6.60
2022-08-03T05:18:24.770Z,7.10
2022-08-03T05:20:53.144Z,7.90
2022-08-03T05:23:21.587Z,7.20
2022-08-03T05:25:50.357Z,8.80
2022-08-03T05:28:19.016Z,6.60
2022-08-03T05:30:47.427Z,8.60
2022-08-03T05:33:15.811Z,11.30
2022-08-03T05:35:57.499Z,7.10
2022-08-03T05:38:34.768Z,7.60
2022-08-03T05:41:21.891Z,7.20
2022-08-03T05:43:54.986Z,8.40
2022-08-03T05:48:51.921Z,7.80
2022-08-03T05:51:20.659Z,7.80
2022-08-03T05:53:49.279Z,10.20
2022-08-03T05:56:17.648Z,8.60
2022-08-03T05:58:47.836Z,6.80
2022-08-03T06:01:17.523Z,5.80
2022-08-03T06:03:46.686Z,8.20
2022-08-03T06:06:15.568Z,6.30
2022-08-03T06:08:45.494Z,6.50
2022-08-03T06:11:13.865Z,8.50
2022-08-03T06:13:42.852Z,6.00
2022-08-03T06:16:11.343Z,7.10
2022-08-03T06:18:41.133Z,7.90
2022-08-03T06:21:15.551Z,5.40
2022-08-03T06:23:54.763Z,4.80
2022-08-03T06:26:25.525Z,5.70
2022-08-03T06:28:55.374Z,6.40
2022-08-03T06:31:33.078Z,5.70
2022-08-03T06:34:31.610Z,9.00
2022-08-03T06:36:53.136Z,7.20
2022-08-03T06:39:23.573Z,6.00
2022-08-03T06:41:53.832Z,5.10
2022-08-03T06:44:22.204Z,4.90
2022-08-03T06:46:51.614Z,5.40
2022-08-03T06:49:20.162Z,7.30
2022-08-03T06:52:03.767Z,6.20
2022-08-03T06:54:36.105Z,6.60
2022-08-03T06:57:05.848Z,6.00
2022-08-03T07:00:07.775Z,4.20
2022-08-03T07:02:22.754Z,4.60
2022-08-03T07:04:51.138Z,3.70
2022-08-03T07:07:20.842Z,4.20
2022-08-03T07:09:54.962Z,4.40
2022-08-03T07:12:27.887Z,5.20
2022-08-03T07:15:00.912Z,4.50
2022-08-03T07:17:31.951Z,4.40
2022-08-03T07:20:01.712Z,4.10
2022-08-03T07:22:30.422Z,3.70
2022-08-03T07:24:58.884Z,4.70
2022-08-03T07:27:28.786Z,6.30
2022-08-03T07:29:58.908Z,4.60
2022-08-03T07:35:00.829Z,4.10
2022-08-03T07:37:31.148Z,6.60
2022-08-03T07:40:01.241Z,5.80
2022-08-03T07:42:30.187Z,3.30
2022-08-03T07:44:59.624Z,4.50
2022-08-03T07:47:35.636Z,3.30
2022-08-03T07:50:08.556Z,3.00
2022-08-03T07:52:50.080Z,3.00
2022-08-03T07:55:26.649Z,3.20
2022-08-03T07:58:10.153Z,3.40
2022-08-03T08:00:39.001Z,3.60
2022-08-03T08:03:07.591Z,5.00
2022-08-03T08:05:36.009Z,2.50
2022-08-03T08:08:05.168Z,3.00
2022-08-03T08:10:34.084Z,3.50
2022-08-03T08:13:03.775Z,2.90
2022-08-03T08:15:33.114Z,3.60
2022-08-03T08:18:02.733Z,5.20
2022-08-03T08:20:36.531Z,3.70
2022-08-03T08:23:24.229Z,3.00
2022-08-03T08:25:57.279Z,3.40
2022-08-03T08:28:32.718Z,5.00
2022-08-03T08:31:02.765Z,3.70
2022-08-03T08:36:20.035Z,4.70
2022-08-03T08:38:48.549Z,3.40
2022-08-03T08:41:17.584Z,5.40
2022-08-03T08:43:45.886Z,4.10
2022-08-03T08:46:23.133Z,5.60
2022-08-03T08:48:54.638Z,5.60
2022-08-03T08:51:51.011Z,4.10
2022-08-03T08:54:21.580Z,5.90
2022-08-03T08:56:52.877Z,7.40
2022-08-03T08:59:22.517Z,6.10
2022-08-03T09:01:50.879Z,5.30
2022-08-03T09:04:19.343Z,5.30
2022-08-03T09:07:04.686Z,3.60
2022-08-03T09:10:11.332Z,7.00
2022-08-03T09:12:42.456Z,5.90
2022-08-03T09:15:28.877Z,5.80
2022-08-03T09:18:01.983Z,5.80
2022-08-03T09:20:33.574Z,6.30
2022-08-03T09:23:43.819Z,5.10
2022-08-03T09:26:01.865Z,3.40
2022-08-03T09:29:00.712Z,4.10
2022-08-03T09:31:37.828Z,2.90
2022-08-03T09:34:11.922Z,3.50
2022-08-03T09:37:13.106Z,7.00
2022-08-03T09:39:42.446Z,3.80
2022-08-03T09:42:14.428Z,3.80
2022-08-03T09:44:49.353Z,3.00
2022-08-03T09:52:11.037Z,4.00
2022-08-03T09:54:25.696Z,4.20
2022-08-03T09:56:54.305Z,2.70
2022-08-03T09:59:31.565Z,2.70
2022-08-03T10:02:00.711Z,2.40
2022-08-03T10:04:29.077Z,2.20
2022-08-03T10:07:09.654Z,2.80
2022-08-03T10:09:38.950Z,2.50
2022-08-03T10:12:09.375Z,2.30
2022-08-03T10:14:39.701Z,5.30
2022-08-03T10:17:09.653Z,4.10
2022-08-03T10:19:38.571Z,3.50
2022-08-03T10:22:22.898Z,2.30
2022-08-03T10:29:14.710Z,2.40
2022-08-03T10:31:54.753Z,1.90
2022-08-03T10:34:29.830Z,2.00
2022-08-03T10:37:00.410Z,2.30
2022-08-03T10:39:30.897Z,1.90
2022-08-03T10:42:02.705Z,2.00
2022-08-03T10:44:40.138Z,2.50
2022-08-03T10:47:11.531Z,2.50
2022-08-03T10:49:40.470Z,2.60
2022-08-03T10:52:13.404Z,2.90
2022-08-03T10:55:17.274Z,2.00
2022-08-03T10:57:48.973Z,4.20
2022-08-03T11:00:20.954Z,3.40
2022-08-03T11:03:11.203Z,2.90
2022-08-03T11:06:03.299Z,2.80
2022-08-03T11:08:36.975Z,2.30
2022-08-03T11:11:17.509Z,3.00
2022-08-03T11:14:07.912Z,1.80
2022-08-03T11:16:39.689Z,2.20
2022-08-03T11:19:13.583Z,2.00
2022-08-03T11:21:54.072Z,1.80
2022-08-03T11:24:51.479Z,3.40
2022-08-03T11:27:23.009Z,1.80
2022-08-03T11:34:15.198Z,2.90
2022-08-03T11:37:22.971Z,3.20
2022-08-03T11:39:54.810Z,2.40
2022-08-03T11:42:23.516Z,2.50
2022-08-03T11:44:52.713Z,2.00
2022-08-03T11:47:22.488Z,2.70
2022-08-03T11:49:54.332Z,2.50
2022-08-03T11:52:26.731Z,2.20
2022-08-03T11:54:57.508Z,2.30
2022-08-03T11:59:10.748Z,4.10
2022-08-03T12:00:31.360Z,2.20
2022-08-03T12:03:05.903Z,1.90
2022-08-03T12:05:54.910Z,2.80
2022-08-03T12:08:32.789Z,3.80
2022-08-03T12:11:08.799Z,2.30
2022-08-03T12:14:44.867Z,3.10
2022-08-03T12:16:35.965Z,2.20
2022-08-03T12:19:07.032Z,1.80
2022-08-03T12:21:35.638Z,2.00
2022-08-03T12:24:05.608Z,2.00
2022-08-03T12:26:57.213Z,1.90
2022-08-03T12:29:27.872Z,3.20
2022-08-03T12:31:56.580Z,1.80
2022-08-03T12:34:25.088Z,1.90
2022-08-03T12:37:00.429Z,2.60
2022-08-03T12:41:59.927Z,1.90
2022-08-03T12:44:33.317Z,2.00
2022-08-03T12:47:04.101Z,2.00
2022-08-03T12:49:49.164Z,1.90
2022-08-03T12:52:19.402Z,1.80
2022-08-03T12:55:06.049Z,2.80
2022-08-03T12:57:41.693Z,3.20
2022-08-03T13:00:21.798Z,2.10
2022-08-03T13:03:38.578Z,2.00
2022-08-03T13:05:52.334Z,2.00
2022-08-03T13:08:25.668Z,2.10
2022-08-03T13:10:54.036Z,2.00
2022-08-03T13:13:41.117Z,4.00
2022-08-03T13:16:09.538Z,2.10
2022-08-03T13:18:37.924Z,2.20
2022-08-03T13:21:06.718Z,3.30
2022-08-03T13:23:35.068Z,2.20
2022-08-03T13:26:03.443Z,2.60
2022-08-03T13:28:31.759Z,2.90
2022-08-03T13:31:00.170Z,2.80
2022-08-03T13:33:28.958Z,2.50
2022-08-03T13:35:57.438Z,4.00
2022-08-03T13:38:27.232Z,2.10
2022-08-03T13:40:57.026Z,2.00
2022-08-03T13:43:25.447Z,2.10
2022-08-03T13:45:57.982Z,3.90
2022-08-03T13:48:36.638Z,3.40
2022-08-03T13:53:52.568Z,3.30
2022-08-03T13:56:20.996Z,1.80
2022-08-03T13:58:49.314Z,2.10
2022-08-03T14:01:25.940Z,3.10
2022-08-03T14:04:06.546Z,2.20
2022-08-03T14:06:49.452Z,2.10
2022-08-03T14:09:17.926Z,2.00
2022-08-03T14:12:04.089Z,2.70
2022-08-03T14:14:35.791Z,2.00
2022-08-03T14:17:04.259Z,2.80
2022-08-03T14:19:32.655Z,2.40
2022-08-03T14:22:21.788Z,2.20
2022-08-03T14:24:50.117Z,2.20
2022-08-03T14:27:20.242Z,1.90
2022-08-03T14:29:49.697Z,2.20
2022-08-03T14:32:17.989Z,2.00
2022-08-03T14:34:46.314Z,2.40
2022-08-03T14:37:14.879Z,2.20
2022-08-03T14:40:00.415Z,2.90
2022-08-03T14:42:29.446Z,2.00
2022-08-03T14:45:03.457Z,2.60
2022-08-03T14:47:36.458Z,3.20
2022-08-03T14:50:30.830Z,2.30
2022-08-03T14:53:07.738Z,2.90
2022-08-03T14:55:38.777Z,2.00
2022-08-03T14:58:23.536Z,2.50
2022-08-03T15:00:53.451Z,2.80
2022-08-03T15:03:25.792Z,2.50
2022-08-03T15:05:56.856Z,2.50
2022-08-03T15:08:26.903Z,2.90
2022-08-03T15:10:55.295Z,25.40
2022-08-03T15:13:25.506Z,2.70
2022-08-03T15:15:53.876Z,3.20
2022-08-03T15:18:22.257Z,3.10
2022-08-03T15:20:51.055Z,2.80
2022-08-03T15:23:19.651Z,2.10
2022-08-03T15:26:28.679Z,2.80
2022-08-03T15:28:37.432Z,2.80
2022-08-03T15:31:07.207Z,3.50
2022-08-03T15:33:35.632Z,2.80
2022-08-03T15:36:05.082Z,3.20
2022-08-03T15:38:33.518Z,2.30
2022-08-03T15:41:01.850Z,2.30
2022-08-03T15:43:30.248Z,2.40
2022-08-03T15:46:27.747Z,2.40
2022-08-03T15:48:47.530Z,2.10
2022-08-03T15:51:16.255Z,2.30
2022-08-03T15:53:44.673Z,2.60
2022-08-03T15:56:16.802Z,2.30
2022-08-03T15:59:07.627Z,5.60
2022-08-03T16:01:35.604Z,2.40
2022-08-03T16:04:04.509Z,2.50
2022-08-03T16:06:35.806Z,2.90
2022-08-03T16:09:22.888Z,3.60
2022-08-03T16:11:55.775Z,3.50
2022-08-03T16:14:35.620Z,2.40
2022-08-03T16:17:06.455Z,2.30
2022-08-03T16:19:35.677Z,2.60
2022-08-03T16:22:04.214Z,2.60
2022-08-03T16:24:33.060Z,1.90
2022-08-03T16:27:01.683Z,2.20
2022-08-03T16:29:30.158Z,2.20
2022-08-03T16:31:58.483Z,2.50
2022-08-03T16:34:26.874Z,3.70
2022-08-03T16:36:55.186Z,3.00
2022-08-03T16:39:23.652Z,2.70
2022-08-03T16:41:54.507Z,4.90
2022-08-03T16:44:31.143Z,2.90
2022-08-03T16:49:55.543Z,3.90
2022-08-03T16:52:17.949Z,2.50
2022-08-03T16:54:52.469Z,2.00
2022-08-03T16:57:56.052Z,3.30
2022-08-03T17:00:32.977Z,3.10
2022-08-03T17:03:19.107Z,3.10
2022-08-03T17:05:50.229Z,3.10
2022-08-03T17:08:26.114Z,4.00
2022-08-03T17:10:56.517Z,2.80
2022-08-03T17:13:39.272Z,3.10
2022-08-03T17:16:10.733Z,3.20
2022-08-03T17:23:33.891Z,2.40
2022-08-03T17:26:02.179Z,5.10
2022-08-03T17:28:51.847Z,2.60
2022-08-03T17:31:30.841Z,3.60
2022-08-03T17:34:04.452Z,3.30
2022-08-03T17:37:03.146Z,4.20
2022-08-03T17:39:48.454Z,3.20
2022-08-03T17:42:30.892Z,2.60
2022-08-03T17:45:03.887Z,4.00
2022-08-03T17:47:42.774Z,2.70
2022-08-03T17:50:24.561Z,4.30
2022-08-03T17:57:27.114Z,2.90
2022-08-03T18:00:26.030Z,3.00
2022-08-03T18:03:18.637Z,2.30
2022-08-03T18:06:12.722Z,3.50
2022-08-03T18:13:20.264Z,3.00
2022-08-03T18:16:03.369Z,5.80
2022-08-03T18:18:38.734Z,11.90
2022-08-03T18:21:17.164Z,7.40
2022-08-03T18:23:50.298Z,6.30
2022-08-03T18:26:21.766Z,10.10
2022-08-03T18:28:54.883Z,4.10
2022-08-03T18:31:59.789Z,3.20
2022-08-03T18:34:32.513Z,2.70
2022-08-03T18:37:07.183Z,5.40
2022-08-03T18:39:49.826Z,3.30
2022-08-03T18:42:25.676Z,2.80
2022-08-03T18:44:56.825Z,4.90
2022-08-03T18:47:52.531Z,2.90
2022-08-03T18:55:04.525Z,2.70
2022-08-03T18:58:22.848Z,2.60
2022-08-03T19:02:00.133Z,3.90
2022-08-03T19:04:19.722Z,2.30
2022-08-03T19:07:22.163Z,3.30
2022-08-03T19:14:11.368Z,2.90
2022-08-03T19:16:43.732Z,2.60
2022-08-03T19:19:17.599Z,3.00
2022-08-03T19:21:48.544Z,4.50
2022-08-03T19:24:23.350Z,3.30
2022-08-03T19:26:56.210Z,4.70
2022-08-03T19:29:25.438Z,2.10
2022-08-03T19:32:21.077Z,3.00
2022-08-03T19:34:51.859Z,2.70
2022-08-03T19:37:22.206Z,2.80
2022-08-03T19:39:56.735Z,2.90
2022-08-03T19:42:31.066Z,2.30
2022-08-03T19:45:11.223Z,3.70
2022-08-03T19:47:51.653Z,4.00
2022-08-03T19:50:21.023Z,3.10
2022-08-03T19:52:50.331Z,2.90
2022-08-03T19:55:18.811Z,3.00
2022-08-03T19:57:49.662Z,2.50
2022-08-03T20:00:26.111Z,2.80
2022-08-03T20:02:57.258Z,3.80
2022-08-03T20:05:26.604Z,7.50
2022-08-03T20:07:58.034Z,4.00
2022-08-03T20:10:27.032Z,5.00
2022-08-03T20:12:55.383Z,3.90
2022-08-03T20:15:31.783Z,3.60
2022-08-03T20:18:01.012Z,3.90
2022-08-03T20:20:32.836Z,3.30
2022-08-03T20:23:07.147Z,2.40
2022-08-03T20:25:58.127Z,4.90
2022-08-03T20:28:50.505Z,2.80
2022-08-03T20:31:25.223Z,2.90
2022-08-03T20:34:01.163Z,3.60
2022-08-03T20:36:29.611Z,2.80
2022-08-03T20:38:59.545Z,2.80
2022-08-03T20:41:28.373Z,2.20
2022-08-03T20:44:01.080Z,3.20
2022-08-03T20:46:38.562Z,2.50
2022-08-03T20:49:23.043Z,3.00
2022-08-03T20:51:53.841Z,2.70
2022-08-03T20:54:29.856Z,3.60
2022-08-03T20:57:04.196Z,2.40
2022-08-03T20:59:51.244Z,2.70
2022-08-03T21:02:29.454Z,2.70
2022-08-03T21:05:03.726Z,2.30
2022-08-03T21:08:04.936Z,2.90
2022-08-03T21:10:41.962Z,3.90
2022-08-03T21:12:57.103Z,5.00
2022-08-03T21:16:11.742Z,3.10
2022-08-03T21:22:13.955Z,3.40
2022-08-03T21:24:43.901Z,3.40
2022-08-03T21:27:13.040Z,3.10
2022-08-03T21:29:52.866Z,10.70
2022-08-03T21:32:30.002Z,4.60
2022-08-03T21:35:01.705Z,3.50
2022-08-03T21:37:30.100Z,3.10
2022-08-03T21:39:58.539Z,3.30
2022-08-03T21:42:27.043Z,4.30
2022-08-03T21:44:55.347Z,3.70
2022-08-03T21:47:25.329Z,3.10
2022-08-03T21:50:06.247Z,4.20
2022-08-03T21:52:46.391Z,3.60
2022-08-03T21:55:18.386Z,4.70
2022-08-03T21:57:53.483Z,3.60
2022-08-03T22:00:23.695Z,4.50
2022-08-03T22:02:57.126Z,3.80
2022-08-03T22:05:42.608Z,3.60
2022-08-03T22:08:15.361Z,3.60
2022-08-03T22:10:45.191Z,2.80
2022-08-03T22:13:16.262Z,3.70
2022-08-03T22:15:49.039Z,3.40
2022-08-03T22:18:39.168Z,3.60
2022-08-03T22:21:10.294Z,3.50
2022-08-03T22:23:51.919Z,3.90
2022-08-03T22:26:34.816Z,4.70
2022-08-03T22:29:08.395Z,3.00
2022-08-03T22:31:59.195Z,3.40
2022-08-03T22:34:27.435Z,2.70
2022-08-03T22:37:00.402Z,3.70
2022-08-03T22:39:30.076Z,2.40
2022-08-03T22:41:59.233Z,2.60
2022-08-03T22:44:28.560Z,3.50
2022-08-03T22:46:58.355Z,2.90
2022-08-03T22:49:29.072Z,2.80
2022-08-03T22:51:58.724Z,4.50
2022-08-03T22:54:28.281Z,2.80
2022-08-03T22:56:58.699Z,2.80
2022-08-03T22:59:40.682Z,4.20
2022-08-03T23:02:21.185Z,4.00
2022-08-03T23:04:56.876Z,3.80
2022-08-03T23:07:33.639Z,3.30
2022-08-03T23:10:05.496Z,2.90
2022-08-03T23:12:37.356Z,4.50
2022-08-03T23:15:08.607Z,2.70
2022-08-03T23:17:58.026Z,4.00
2022-08-03T23:20:29.091Z,4.60
2022-08-03T23:22:58.327Z,2.50
2022-08-03T23:25:27.354Z,2.80
2022-08-03T23:28:04.529Z,2.70
2022-08-03T23:30:37.978Z,2.70
2022-08-03T23:33:08.542Z,4.20
2022-08-03T23:36:29.898Z,2.80
2022-08-03T23:38:46.321Z,4.50
2022-08-03T23:41:17.829Z,3.60
2022-08-03T23:43:51.687Z,3.30
2022-08-03T23:46:24.068Z,3.90
2022-08-03T23:48:53.934Z,3.50
2022-08-03T23:51:35.718Z,4.80
2022-08-03T23:54:24.303Z,3.40
2022-08-03T23:57:25.083Z,3.00
